sensor_id;sensor_type;location;lat;lon;timestamp;P1;durP1;ratioP1;P2;durP2;ratioP2
7833;SDS011;3962;42.696;23.354;2023-04-24T00:02:17;11.40;;;7.43;;
7833;SDS011;3962;42.696;23.354;2023-04-24T00:04:44;10.00;;;6.17;;
7833;SDS011;3962;42.696;23.354;2023-04-24T00:07:11;10.23;;;5.77;;
7833;SDS011;3962;42.696;23.354;2023-04-24T00:09:39;8.90;;;6.20;;
7833;SDS011;3962;42.696;23.354;2023-04-24T00:12:06;15.90;;;5.90;;
7833;SDS011;3962;42.696;23.354;2023-04-24T00:14:33;10.97;;;5.40;;
7833;SDS011;3962;42.696;23.354;2023-04-24T00:17:00;9.97;;;5.93;;
7833;SDS011;3962;42.696;23.354;2023-04-24T00:19:28;10.20;;;5.80;;
7833;SDS011;3962;42.696;23.354;2023-04-24T00:21:55;7.90;;;5.60;;
7833;SDS011;3962;42.696;23.354;2023-04-24T00:24:22;9.40;;;5.60;;
7833;SDS011;3962;42.696;23.354;2023-04-24T00:26:49;7.53;;;5.57;;
7833;SDS011;3962;42.696;23.354;2023-04-24T00:29:15;6.30;;;5.30;;
7833;SDS011;3962;42.696;23.354;2023-04-24T00:31:42;8.70;;;5.00;;
7833;SDS011;3962;42.696;23.354;2023-04-24T00:34:09;9.10;;;5.63;;
7833;SDS011;3962;42.696;23.354;2023-04-24T00:36:38;6.40;;;5.47;;
7833;SDS011;3962;42.696;23.354;2023-04-24T00:39:05;7.77;;;5.40;;
7833;SDS011;3962;42.696;23.354;2023-04-24T00:41:33;9.97;;;5.20;;
7833;SDS011;3962;42.696;23.354;2023-04-24T00:44:00;10.27;;;5.43;;
7833;SDS011;3962;42.696;23.354;2023-04-24T00:46:27;8.70;;;5.37;;
7833;SDS011;3962;42.696;23.354;2023-04-24T00:48:54;8.17;;;5.43;;
7833;SDS011;3962;42.696;23.354;2023-04-24T00:51:22;9.10;;;5.37;;
7833;SDS011;3962;42.696;23.354;2023-04-24T00:53:51;6.03;;;5.00;;
7833;SDS011;3962;42.696;23.354;2023-04-24T00:56:17;6.67;;;4.90;;
7833;SDS011;3962;42.696;23.354;2023-04-24T00:58:44;8.07;;;6.20;;
7833;SDS011;3962;42.696;23.354;2023-04-24T01:01:11;7.47;;;5.27;;
7833;SDS011;3962;42.696;23.354;2023-04-24T01:03:39;7.13;;;5.33;;
7833;SDS011;3962;42.696;23.354;2023-04-24T01:06:07;10.63;;;6.03;;
7833;SDS011;3962;42.696;23.354;2023-04-24T01:08:36;10.97;;;5.27;;
7833;SDS011;3962;42.696;23.354;2023-04-24T01:11:06;7.10;;;5.00;;
7833;SDS011;3962;42.696;23.354;2023-04-24T01:13:33;6.43;;;5.07;;
7833;SDS011;3962;42.696;23.354;2023-04-24T01:16:00;8.97;;;5.00;;
7833;SDS011;3962;42.696;23.354;2023-04-24T01:18:27;9.90;;;5.60;;
7833;SDS011;3962;42.696;23.354;2023-04-24T01:20:59;12.13;;;6.00;;
7833;SDS011;3962;42.696;23.354;2023-04-24T01:23:30;9.63;;;5.50;;
7833;SDS011;3962;42.696;23.354;2023-04-24T01:25:57;7.03;;;5.27;;
7833;SDS011;3962;42.696;23.354;2023-04-24T01:28:24;11.13;;;6.60;;
7833;SDS011;3962;42.696;23.354;2023-04-24T01:30:51;10.33;;;5.60;;
7833;SDS011;3962;42.696;23.354;2023-04-24T01:33:18;10.00;;;6.90;;
7833;SDS011;3962;42.696;23.354;2023-04-24T01:35:47;8.33;;;6.13;;
7833;SDS011;3962;42.696;23.354;2023-04-24T01:38:14;12.03;;;6.60;;
7833;SDS011;3962;42.696;23.354;2023-04-24T01:40:42;11.30;;;6.57;;
7833;SDS011;3962;42.696;23.354;2023-04-24T01:43:10;8.37;;;6.33;;
7833;SDS011;3962;42.696;23.354;2023-04-24T01:45:38;12.07;;;7.57;;
7833;SDS011;3962;42.696;23.354;2023-04-24T01:48:05;13.43;;;7.17;;
7833;SDS011;3962;42.696;23.354;2023-04-24T01:50:32;13.57;;;7.70;;
7833;SDS011;3962;42.696;23.354;2023-04-24T01:52:59;10.60;;;7.07;;
7833;SDS011;3962;42.696;23.354;2023-04-24T01:55:26;10.10;;;7.13;;
7833;SDS011;3962;42.696;23.354;2023-04-24T01:57:54;8.17;;;6.47;;
7833;SDS011;3962;42.696;23.354;2023-04-24T02:00:22;11.17;;;6.67;;
7833;SDS011;3962;42.696;23.354;2023-04-24T02:02:49;15.53;;;7.60;;
7833;SDS011;3962;42.696;23.354;2023-04-24T02:05:16;10.10;;;6.60;;
7833;SDS011;3962;42.696;23.354;2023-04-24T02:07:43;9.90;;;6.20;;
7833;SDS011;3962;42.696;23.354;2023-04-24T02:10:10;7.97;;;6.40;;
7833;SDS011;3962;42.696;23.354;2023-04-24T02:12:37;11.13;;;6.77;;
7833;SDS011;3962;42.696;23.354;2023-04-24T02:15:05;10.80;;;6.57;;
7833;SDS011;3962;42.696;23.354;2023-04-24T02:17:32;8.33;;;6.77;;
7833;SDS011;3962;42.696;23.354;2023-04-24T02:20:00;10.93;;;6.10;;
7833;SDS011;3962;42.696;23.354;2023-04-24T02:22:27;10.67;;;6.57;;
7833;SDS011;3962;42.696;23.354;2023-04-24T02:24:54;9.00;;;6.73;;
7833;SDS011;3962;42.696;23.354;2023-04-24T02:27:21;11.63;;;6.80;;
7833;SDS011;3962;42.696;23.354;2023-04-24T02:29:48;11.47;;;6.83;;
7833;SDS011;3962;42.696;23.354;2023-04-24T02:32:16;13.10;;;6.33;;
7833;SDS011;3962;42.696;23.354;2023-04-24T02:34:43;12.17;;;6.97;;
7833;SDS011;3962;42.696;23.354;2023-04-24T02:37:10;8.07;;;6.33;;
7833;SDS011;3962;42.696;23.354;2023-04-24T02:39:37;9.33;;;6.97;;
7833;SDS011;3962;42.696;23.354;2023-04-24T02:42:03;27.80;;;8.40;;
7833;SDS011;3962;42.696;23.354;2023-04-24T02:44:30;15.73;;;6.90;;
7833;SDS011;3962;42.696;23.354;2023-04-24T02:46:57;13.30;;;7.23;;
7833;SDS011;3962;42.696;23.354;2023-04-24T02:49:25;18.37;;;8.27;;
7833;SDS011;3962;42.696;23.354;2023-04-24T02:51:52;16.20;;;7.80;;
7833;SDS011;3962;42.696;23.354;2023-04-24T02:54:19;25.13;;;8.87;;
7833;SDS011;3962;42.696;23.354;2023-04-24T02:56:46;9.60;;;7.07;;
7833;SDS011;3962;42.696;23.354;2023-04-24T02:59:13;11.27;;;7.30;;
7833;SDS011;3962;42.696;23.354;2023-04-24T03:01:39;17.20;;;8.10;;
7833;SDS011;3962;42.696;23.354;2023-04-24T03:04:06;14.77;;;8.20;;
7833;SDS011;3962;42.696;23.354;2023-04-24T03:06:34;12.07;;;7.60;;
7833;SDS011;3962;42.696;23.354;2023-04-24T03:09:01;16.07;;;9.07;;
7833;SDS011;3962;42.696;23.354;2023-04-24T03:11:28;24.97;;;10.77;;
7833;SDS011;3962;42.696;23.354;2023-04-24T03:13:55;12.57;;;7.70;;
7833;SDS011;3962;42.696;23.354;2023-04-24T03:16:22;11.53;;;8.23;;
7833;SDS011;3962;42.696;23.354;2023-04-24T03:18:49;10.00;;;7.83;;
7833;SDS011;3962;42.696;23.354;2023-04-24T03:21:16;14.17;;;8.07;;
7833;SDS011;3962;42.696;23.354;2023-04-24T03:23:44;12.20;;;7.97;;
7833;SDS011;3962;42.696;23.354;2023-04-24T03:26:11;13.20;;;8.00;;
7833;SDS011;3962;42.696;23.354;2023-04-24T03:28:37;11.70;;;8.10;;
7833;SDS011;3962;42.696;23.354;2023-04-24T03:31:04;14.03;;;8.33;;
7833;SDS011;3962;42.696;23.354;2023-04-24T03:33:31;17.37;;;9.27;;
7833;SDS011;3962;42.696;23.354;2023-04-24T03:35:58;13.30;;;7.83;;
7833;SDS011;3962;42.696;23.354;2023-04-24T03:38:25;19.87;;;8.80;;
7833;SDS011;3962;42.696;23.354;2023-04-24T03:40:53;11.17;;;7.90;;
7833;SDS011;3962;42.696;23.354;2023-04-24T03:43:20;10.43;;;7.57;;
7833;SDS011;3962;42.696;23.354;2023-04-24T03:45:47;11.57;;;7.70;;
7833;SDS011;3962;42.696;23.354;2023-04-24T03:48:14;11.17;;;7.80;;
7833;SDS011;3962;42.696;23.354;2023-04-24T03:50:41;14.87;;;7.43;;
7833;SDS011;3962;42.696;23.354;2023-04-24T03:53:07;9.13;;;7.40;;
7833;SDS011;3962;42.696;23.354;2023-04-24T03:55:34;13.13;;;7.17;;
7833;SDS011;3962;42.696;23.354;2023-04-24T03:58:02;7.63;;;6.33;;
7833;SDS011;3962;42.696;23.354;2023-04-24T04:00:29;10.90;;;6.63;;
7833;SDS011;3962;42.696;23.354;2023-04-24T04:02:58;11.83;;;6.13;;
7833;SDS011;3962;42.696;23.354;2023-04-24T04:05:25;9.27;;;6.40;;
7833;SDS011;3962;42.696;23.354;2023-04-24T04:07:52;12.10;;;8.20;;
7833;SDS011;3962;42.696;23.354;2023-04-24T04:10:18;9.57;;;5.83;;
7833;SDS011;3962;42.696;23.354;2023-04-24T04:12:45;10.73;;;6.47;;
7833;SDS011;3962;42.696;23.354;2023-04-24T04:15:14;0.43;;;0.43;;
7833;SDS011;3962;42.696;23.354;2023-04-24T04:17:40;10.37;;;6.47;;
7833;SDS011;3962;42.696;23.354;2023-04-24T04:20:07;27.63;;;11.93;;
7833;SDS011;3962;42.696;23.354;2023-04-24T04:22:35;9.73;;;7.13;;
7833;SDS011;3962;42.696;23.354;2023-04-24T04:25:03;10.83;;;6.90;;
7833;SDS011;3962;42.696;23.354;2023-04-24T04:27:30;12.20;;;7.80;;
7833;SDS011;3962;42.696;23.354;2023-04-24T04:29:58;17.20;;;10.37;;
7833;SDS011;3962;42.696;23.354;2023-04-24T04:32:27;20.23;;;10.67;;
7833;SDS011;3962;42.696;23.354;2023-04-24T04:34:54;28.07;;;12.93;;
7833;SDS011;3962;42.696;23.354;2023-04-24T04:37:21;20.13;;;10.50;;
7833;SDS011;3962;42.696;23.354;2023-04-24T04:39:48;14.60;;;9.10;;
7833;SDS011;3962;42.696;23.354;2023-04-24T04:42:16;28.43;;;10.47;;
7833;SDS011;3962;42.696;23.354;2023-04-24T04:44:44;18.57;;;9.07;;
7833;SDS011;3962;42.696;23.354;2023-04-24T04:47:11;21.80;;;10.67;;
7833;SDS011;3962;42.696;23.354;2023-04-24T04:49:39;24.77;;;11.50;;
7833;SDS011;3962;42.696;23.354;2023-04-24T04:52:06;20.33;;;9.53;;
7833;SDS011;3962;42.696;23.354;2023-04-24T04:54:33;22.97;;;10.50;;
7833;SDS011;3962;42.696;23.354;2023-04-24T04:57:00;23.50;;;10.33;;
7833;SDS011;3962;42.696;23.354;2023-04-24T04:59:27;25.77;;;10.77;;
7833;SDS011;3962;42.696;23.354;2023-04-24T05:01:54;18.00;;;11.93;;
7833;SDS011;3962;42.696;23.354;2023-04-24T05:04:20;19.87;;;12.03;;
7833;SDS011;3962;42.696;23.354;2023-04-24T05:06:49;23.90;;;12.23;;
7833;SDS011;3962;42.696;23.354;2023-04-24T05:09:17;28.60;;;12.17;;
7833;SDS011;3962;42.696;23.354;2023-04-24T05:11:44;20.97;;;11.70;;
7833;SDS011;3962;42.696;23.354;2023-04-24T05:14:11;27.13;;;12.77;;
7833;SDS011;3962;42.696;23.354;2023-04-24T05:16:38;25.97;;;13.00;;
7833;SDS011;3962;42.696;23.354;2023-04-24T05:19:06;19.70;;;11.23;;
7833;SDS011;3962;42.696;23.354;2023-04-24T05:21:33;12.47;;;8.30;;
7833;SDS011;3962;42.696;23.354;2023-04-24T05:24:01;13.63;;;9.20;;
7833;SDS011;3962;42.696;23.354;2023-04-24T05:26:28;16.93;;;10.63;;
7833;SDS011;3962;42.696;23.354;2023-04-24T05:28:55;20.30;;;9.93;;
7833;SDS011;3962;42.696;23.354;2023-04-24T05:31:22;16.00;;;9.37;;
7833;SDS011;3962;42.696;23.354;2023-04-24T05:33:50;13.93;;;8.07;;
7833;SDS011;3962;42.696;23.354;2023-04-24T05:36:17;12.43;;;9.50;;
7833;SDS011;3962;42.696;23.354;2023-04-24T05:38:44;10.97;;;8.10;;
7833;SDS011;3962;42.696;23.354;2023-04-24T05:41:12;19.70;;;8.87;;
7833;SDS011;3962;42.696;23.354;2023-04-24T05:43:39;22.77;;;11.43;;
7833;SDS011;3962;42.696;23.354;2023-04-24T05:46:08;15.40;;;9.60;;
7833;SDS011;3962;42.696;23.354;2023-04-24T05:48:35;17.57;;;8.67;;
7833;SDS011;3962;42.696;23.354;2023-04-24T05:51:02;15.20;;;10.27;;
7833;SDS011;3962;42.696;23.354;2023-04-24T05:53:29;27.50;;;15.53;;
7833;SDS011;3962;42.696;23.354;2023-04-24T05:55:56;18.80;;;9.27;;
7833;SDS011;3962;42.696;23.354;2023-04-24T05:58:24;19.53;;;9.27;;
7833;SDS011;3962;42.696;23.354;2023-04-24T06:00:51;14.57;;;9.83;;
7833;SDS011;3962;42.696;23.354;2023-04-24T06:03:18;16.03;;;9.87;;
7833;SDS011;3962;42.696;23.354;2023-04-24T06:05:45;18.17;;;9.77;;
7833;SDS011;3962;42.696;23.354;2023-04-24T06:08:12;15.17;;;8.70;;
7833;SDS011;3962;42.696;23.354;2023-04-24T06:10:40;13.33;;;9.07;;
7833;SDS011;3962;42.696;23.354;2023-04-24T06:13:06;19.90;;;9.43;;
7833;SDS011;3962;42.696;23.354;2023-04-24T06:15:37;16.17;;;9.73;;
7833;SDS011;3962;42.696;23.354;2023-04-24T06:18:05;16.67;;;9.57;;
7833;SDS011;3962;42.696;23.354;2023-04-24T06:20:32;16.43;;;9.83;;
7833;SDS011;3962;42.696;23.354;2023-04-24T06:23:00;14.00;;;9.70;;
7833;SDS011;3962;42.696;23.354;2023-04-24T06:25:26;16.10;;;10.27;;
7833;SDS011;3962;42.696;23.354;2023-04-24T06:27:55;24.33;;;9.70;;
7833;SDS011;3962;42.696;23.354;2023-04-24T06:30:22;16.53;;;9.63;;
7833;SDS011;3962;42.696;23.354;2023-04-24T06:32:50;11.70;;;8.97;;
7833;SDS011;3962;42.696;23.354;2023-04-24T06:35:23;19.27;;;9.53;;
7833;SDS011;3962;42.696;23.354;2023-04-24T06:37:50;15.73;;;8.87;;
7833;SDS011;3962;42.696;23.354;2023-04-24T06:40:17;16.10;;;10.80;;
7833;SDS011;3962;42.696;23.354;2023-04-24T06:42:44;24.73;;;13.47;;
7833;SDS011;3962;42.696;23.354;2023-04-24T06:45:11;15.03;;;10.50;;
7833;SDS011;3962;42.696;23.354;2023-04-24T06:47:38;14.27;;;9.03;;
7833;SDS011;3962;42.696;23.354;2023-04-24T06:50:07;18.27;;;9.33;;
7833;SDS011;3962;42.696;23.354;2023-04-24T06:52:34;15.70;;;9.17;;
7833;SDS011;3962;42.696;23.354;2023-04-24T06:55:01;18.90;;;9.93;;
7833;SDS011;3962;42.696;23.354;2023-04-24T06:57:29;15.53;;;8.93;;
7833;SDS011;3962;42.696;23.354;2023-04-24T06:59:56;17.47;;;9.50;;
7833;SDS011;3962;42.696;23.354;2023-04-24T07:02:23;17.37;;;10.07;;
7833;SDS011;3962;42.696;23.354;2023-04-24T07:04:50;14.98;;;9.48;;
7833;SDS011;3962;42.696;23.354;2023-04-24T07:07:19;17.70;;;9.97;;
7833;SDS011;3962;42.696;23.354;2023-04-24T07:09:46;17.30;;;8.97;;
7833;SDS011;3962;42.696;23.354;2023-04-24T07:12:13;16.77;;;9.30;;
7833;SDS011;3962;42.696;23.354;2023-04-24T07:14:42;21.60;;;10.37;;
7833;SDS011;3962;42.696;23.354;2023-04-24T07:17:08;17.63;;;9.40;;
7833;SDS011;3962;42.696;23.354;2023-04-24T07:19:35;15.53;;;9.77;;
7833;SDS011;3962;42.696;23.354;2023-04-24T07:22:02;23.33;;;10.07;;
7833;SDS011;3962;42.696;23.354;2023-04-24T07:24:30;14.77;;;8.00;;
7833;SDS011;3962;42.696;23.354;2023-04-24T07:26:58;16.17;;;9.77;;
7833;SDS011;3962;42.696;23.354;2023-04-24T07:29:26;17.00;;;9.60;;
7833;SDS011;3962;42.696;23.354;2023-04-24T07:31:53;15.70;;;9.23;;
7833;SDS011;3962;42.696;23.354;2023-04-24T07:34:21;15.03;;;8.50;;
7833;SDS011;3962;42.696;23.354;2023-04-24T07:36:48;21.17;;;9.07;;
7833;SDS011;3962;42.696;23.354;2023-04-24T07:39:15;13.03;;;8.23;;
7833;SDS011;3962;42.696;23.354;2023-04-24T07:41:43;16.30;;;9.13;;
7833;SDS011;3962;42.696;23.354;2023-04-24T07:44:10;19.30;;;9.73;;
7833;SDS011;3962;42.696;23.354;2023-04-24T07:46:37;9.80;;;7.50;;
7833;SDS011;3962;42.696;23.354;2023-04-24T07:49:04;13.20;;;8.20;;
7833;SDS011;3962;42.696;23.354;2023-04-24T07:51:31;10.93;;;6.93;;
7833;SDS011;3962;42.696;23.354;2023-04-24T07:54:03;12.87;;;8.13;;
7833;SDS011;3962;42.696;23.354;2023-04-24T07:56:31;14.03;;;8.53;;
7833;SDS011;3962;42.696;23.354;2023-04-24T07:58:59;10.33;;;6.97;;
7833;SDS011;3962;42.696;23.354;2023-04-24T08:01:27;10.80;;;7.23;;
7833;SDS011;3962;42.696;23.354;2023-04-24T08:03:54;12.47;;;6.37;;
7833;SDS011;3962;42.696;23.354;2023-04-24T08:06:21;12.63;;;7.93;;
7833;SDS011;3962;42.696;23.354;2023-04-24T08:08:48;11.33;;;6.60;;
7833;SDS011;3962;42.696;23.354;2023-04-24T08:11:16;12.97;;;6.63;;
7833;SDS011;3962;42.696;23.354;2023-04-24T08:13:43;10.87;;;6.60;;
7833;SDS011;3962;42.696;23.354;2023-04-24T08:16:11;9.83;;;6.37;;
7833;SDS011;3962;42.696;23.354;2023-04-24T08:18:38;15.10;;;6.33;;
7833;SDS011;3962;42.696;23.354;2023-04-24T08:21:05;7.77;;;6.17;;
7833;SDS011;3962;42.696;23.354;2023-04-24T08:23:32;10.10;;;6.13;;
7833;SDS011;3962;42.696;23.354;2023-04-24T08:25:59;10.07;;;6.10;;
7833;SDS011;3962;42.696;23.354;2023-04-24T08:28:26;12.07;;;6.23;;
7833;SDS011;3962;42.696;23.354;2023-04-24T08:30:52;8.23;;;5.70;;
7833;SDS011;3962;42.696;23.354;2023-04-24T08:33:22;10.33;;;6.83;;
7833;SDS011;3962;42.696;23.354;2023-04-24T08:35:49;13.70;;;5.93;;
7833;SDS011;3962;42.696;23.354;2023-04-24T08:38:16;8.17;;;6.00;;
7833;SDS011;3962;42.696;23.354;2023-04-24T08:40:43;12.53;;;6.53;;
7833;SDS011;3962;42.696;23.354;2023-04-24T08:43:11;7.87;;;5.63;;
7833;SDS011;3962;42.696;23.354;2023-04-24T08:45:39;7.97;;;5.27;;
7833;SDS011;3962;42.696;23.354;2023-04-24T08:48:06;11.90;;;5.50;;
7833;SDS011;3962;42.696;23.354;2023-04-24T08:50:35;7.83;;;5.30;;
7833;SDS011;3962;42.696;23.354;2023-04-24T08:53:03;8.33;;;5.00;;
7833;SDS011;3962;42.696;23.354;2023-04-24T08:55:31;6.70;;;4.90;;
7833;SDS011;3962;42.696;23.354;2023-04-24T08:57:59;9.17;;;5.30;;
7833;SDS011;3962;42.696;23.354;2023-04-24T09:00:27;11.17;;;6.07;;
7833;SDS011;3962;42.696;23.354;2023-04-24T09:02:54;8.83;;;6.20;;
7833;SDS011;3962;42.696;23.354;2023-04-24T09:05:22;13.47;;;5.40;;
7833;SDS011;3962;42.696;23.354;2023-04-24T09:07:53;7.20;;;5.40;;
7833;SDS011;3962;42.696;23.354;2023-04-24T09:10:21;10.83;;;5.80;;
7833;SDS011;3962;42.696;23.354;2023-04-24T09:12:53;10.70;;;6.03;;
7833;SDS011;3962;42.696;23.354;2023-04-24T09:15:21;9.13;;;5.50;;
7833;SDS011;3962;42.696;23.354;2023-04-24T09:17:48;9.23;;;5.23;;
7833;SDS011;3962;42.696;23.354;2023-04-24T09:20:16;15.20;;;5.70;;
7833;SDS011;3962;42.696;23.354;2023-04-24T09:22:43;10.53;;;5.23;;
7833;SDS011;3962;42.696;23.354;2023-04-24T09:25:13;8.00;;;5.43;;
7833;SDS011;3962;42.696;23.354;2023-04-24T09:27:43;13.37;;;5.60;;
7833;SDS011;3962;42.696;23.354;2023-04-24T09:30:12;8.40;;;5.03;;
7833;SDS011;3962;42.696;23.354;2023-04-24T09:32:39;9.67;;;5.50;;
7833;SDS011;3962;42.696;23.354;2023-04-24T09:35:07;6.83;;;5.30;;
7833;SDS011;3962;42.696;23.354;2023-04-24T09:37:36;10.10;;;5.30;;
7833;SDS011;3962;42.696;23.354;2023-04-24T09:40:13;6.63;;;5.07;;
7833;SDS011;3962;42.696;23.354;2023-04-24T09:42:43;6.60;;;5.30;;
7833;SDS011;3962;42.696;23.354;2023-04-24T09:45:12;7.40;;;4.97;;
7833;SDS011;3962;42.696;23.354;2023-04-24T09:47:39;6.27;;;4.80;;
7833;SDS011;3962;42.696;23.354;2023-04-24T09:50:10;7.07;;;4.90;;
7833;SDS011;3962;42.696;23.354;2023-04-24T09:52:41;13.37;;;5.30;;
7833;SDS011;3962;42.696;23.354;2023-04-24T09:55:19;9.30;;;5.33;;
7833;SDS011;3962;42.696;23.354;2023-04-24T09:57:47;8.60;;;5.97;;
7833;SDS011;3962;42.696;23.354;2023-04-24T10:00:17;6.27;;;5.20;;
7833;SDS011;3962;42.696;23.354;2023-04-24T10:02:49;9.07;;;5.40;;
7833;SDS011;3962;42.696;23.354;2023-04-24T10:05:17;16.40;;;5.73;;
7833;SDS011;3962;42.696;23.354;2023-04-24T10:07:44;7.67;;;4.70;;
7833;SDS011;3962;42.696;23.354;2023-04-24T10:10:11;6.93;;;4.50;;
7833;SDS011;3962;42.696;23.354;2023-04-24T10:12:40;11.43;;;5.57;;
7833;SDS011;3962;42.696;23.354;2023-04-24T10:15:07;8.10;;;4.97;;
7833;SDS011;3962;42.696;23.354;2023-04-24T10:17:37;11.47;;;5.03;;
7833;SDS011;3962;42.696;23.354;2023-04-24T10:20:06;7.80;;;5.13;;
7833;SDS011;3962;42.696;23.354;2023-04-24T10:22:34;6.13;;;4.93;;
7833;SDS011;3962;42.696;23.354;2023-04-24T10:25:03;8.37;;;5.33;;
7833;SDS011;3962;42.696;23.354;2023-04-24T10:27:34;6.37;;;4.77;;
7833;SDS011;3962;42.696;23.354;2023-04-24T10:30:04;7.00;;;4.77;;
7833;SDS011;3962;42.696;23.354;2023-04-24T10:32:32;10.43;;;5.10;;
7833;SDS011;3962;42.696;23.354;2023-04-24T10:34:59;13.17;;;6.00;;
7833;SDS011;3962;42.696;23.354;2023-04-24T10:37:26;9.27;;;5.03;;
7833;SDS011;3962;42.696;23.354;2023-04-24T10:39:53;8.73;;;5.20;;
7833;SDS011;3962;42.696;23.354;2023-04-24T10:42:22;7.40;;;5.03;;
7833;SDS011;3962;42.696;23.354;2023-04-24T10:44:49;5.73;;;5.03;;
7833;SDS011;3962;42.696;23.354;2023-04-24T10:47:18;6.80;;;5.10;;
7833;SDS011;3962;42.696;23.354;2023-04-24T10:49:45;11.67;;;5.23;;
7833;SDS011;3962;42.696;23.354;2023-04-24T10:52:12;6.83;;;5.00;;
7833;SDS011;3962;42.696;23.354;2023-04-24T10:54:42;10.40;;;4.93;;
7833;SDS011;3962;42.696;23.354;2023-04-24T10:57:27;9.87;;;5.30;;
7833;SDS011;3962;42.696;23.354;2023-04-24T11:00:14;7.97;;;5.60;;
7833;SDS011;3962;42.696;23.354;2023-04-24T11:02:46;6.20;;;4.90;;
7833;SDS011;3962;42.696;23.354;2023-04-24T11:05:18;9.40;;;5.60;;
7833;SDS011;3962;42.696;23.354;2023-04-24T11:10:43;10.77;;;4.77;;
7833;SDS011;3962;42.696;23.354;2023-04-24T11:13:12;13.10;;;5.83;;
7833;SDS011;3962;42.696;23.354;2023-04-24T11:15:41;9.70;;;5.73;;
7833;SDS011;3962;42.696;23.354;2023-04-24T11:18:13;12.27;;;5.37;;
7833;SDS011;3962;42.696;23.354;2023-04-24T11:20:42;13.33;;;5.30;;
7833;SDS011;3962;42.696;23.354;2023-04-24T11:23:11;8.60;;;4.80;;
7833;SDS011;3962;42.696;23.354;2023-04-24T11:25:39;10.13;;;5.13;;
7833;SDS011;3962;42.696;23.354;2023-04-24T11:28:07;7.97;;;5.70;;
7833;SDS011;3962;42.696;23.354;2023-04-24T11:30:42;16.20;;;6.10;;
7833;SDS011;3962;42.696;23.354;2023-04-24T11:33:08;12.33;;;5.93;;
7833;SDS011;3962;42.696;23.354;2023-04-24T11:35:39;16.03;;;5.93;;
7833;SDS011;3962;42.696;23.354;2023-04-24T11:38:06;11.40;;;5.73;;
7833;SDS011;3962;42.696;23.354;2023-04-24T11:40:34;8.13;;;4.63;;
7833;SDS011;3962;42.696;23.354;2023-04-24T11:43:01;9.97;;;5.20;;
7833;SDS011;3962;42.696;23.354;2023-04-24T11:45:30;6.90;;;5.50;;
7833;SDS011;3962;42.696;23.354;2023-04-24T11:47:57;7.57;;;5.03;;
7833;SDS011;3962;42.696;23.354;2023-04-24T11:50:25;5.73;;;5.13;;
7833;SDS011;3962;42.696;23.354;2023-04-24T11:52:56;14.00;;;5.87;;
7833;SDS011;3962;42.696;23.354;2023-04-24T11:55:23;7.00;;;4.37;;
7833;SDS011;3962;42.696;23.354;2023-04-24T11:57:53;8.03;;;4.80;;
7833;SDS011;3962;42.696;23.354;2023-04-24T12:00:23;4.67;;;3.80;;
7833;SDS011;3962;42.696;23.354;2023-04-24T12:02:51;6.07;;;4.00;;
7833;SDS011;3962;42.696;23.354;2023-04-24T12:05:30;6.07;;;4.67;;
7833;SDS011;3962;42.696;23.354;2023-04-24T12:07:58;5.00;;;4.40;;
7833;SDS011;3962;42.696;23.354;2023-04-24T12:10:25;5.57;;;4.00;;
7833;SDS011;3962;42.696;23.354;2023-04-24T12:12:53;7.87;;;4.50;;
7833;SDS011;3962;42.696;23.354;2023-04-24T12:15:22;6.63;;;4.33;;
7833;SDS011;3962;42.696;23.354;2023-04-24T12:17:50;5.80;;;4.33;;
7833;SDS011;3962;42.696;23.354;2023-04-24T12:20:23;7.30;;;5.00;;
7833;SDS011;3962;42.696;23.354;2023-04-24T12:22:51;5.27;;;4.30;;
7833;SDS011;3962;42.696;23.354;2023-04-24T12:25:22;6.07;;;4.00;;
7833;SDS011;3962;42.696;23.354;2023-04-24T12:27:52;4.60;;;4.17;;
7833;SDS011;3962;42.696;23.354;2023-04-24T12:30:20;4.83;;;4.23;;
7833;SDS011;3962;42.696;23.354;2023-04-24T12:32:48;8.77;;;4.67;;
7833;SDS011;3962;42.696;23.354;2023-04-24T12:35:18;8.30;;;5.03;;
7833;SDS011;3962;42.696;23.354;2023-04-24T12:37:46;6.77;;;4.47;;
7833;SDS011;3962;42.696;23.354;2023-04-24T12:40:13;4.90;;;4.50;;
7833;SDS011;3962;42.696;23.354;2023-04-24T12:42:43;7.37;;;4.37;;
7833;SDS011;3962;42.696;23.354;2023-04-24T12:45:10;4.80;;;3.90;;
7833;SDS011;3962;42.696;23.354;2023-04-24T12:47:38;6.03;;;3.57;;
7833;SDS011;3962;42.696;23.354;2023-04-24T12:50:07;5.40;;;3.90;;
7833;SDS011;3962;42.696;23.354;2023-04-24T12:52:35;5.23;;;3.43;;
7833;SDS011;3962;42.696;23.354;2023-04-24T12:55:01;5.77;;;3.90;;
7833;SDS011;3962;42.696;23.354;2023-04-24T12:57:30;5.23;;;3.80;;
7833;SDS011;3962;42.696;23.354;2023-04-24T12:59:58;6.20;;;4.47;;
7833;SDS011;3962;42.696;23.354;2023-04-24T13:02:26;4.80;;;3.70;;
7833;SDS011;3962;42.696;23.354;2023-04-24T13:04:56;6.93;;;4.10;;
7833;SDS011;3962;42.696;23.354;2023-04-24T13:07:23;6.97;;;4.30;;
7833;SDS011;3962;42.696;23.354;2023-04-24T13:09:51;6.13;;;4.30;;
7833;SDS011;3962;42.696;23.354;2023-04-24T13:12:19;7.50;;;4.70;;
7833;SDS011;3962;42.696;23.354;2023-04-24T13:14:49;5.63;;;4.17;;
7833;SDS011;3962;42.696;23.354;2023-04-24T13:17:17;7.53;;;4.97;;
7833;SDS011;3962;42.696;23.354;2023-04-24T13:19:44;4.77;;;4.17;;
7833;SDS011;3962;42.696;23.354;2023-04-24T13:22:11;5.77;;;4.73;;
7833;SDS011;3962;42.696;23.354;2023-04-24T13:24:39;7.83;;;4.13;;
7833;SDS011;3962;42.696;23.354;2023-04-24T13:27:06;9.37;;;5.20;;
7833;SDS011;3962;42.696;23.354;2023-04-24T13:29:34;8.23;;;5.00;;
7833;SDS011;3962;42.696;23.354;2023-04-24T13:32:01;5.57;;;4.30;;
7833;SDS011;3962;42.696;23.354;2023-04-24T13:34:29;6.17;;;4.27;;
7833;SDS011;3962;42.696;23.354;2023-04-24T13:36:57;7.00;;;4.40;;
7833;SDS011;3962;42.696;23.354;2023-04-24T13:39:24;5.97;;;4.13;;
7833;SDS011;3962;42.696;23.354;2023-04-24T13:41:51;5.90;;;4.50;;
7833;SDS011;3962;42.696;23.354;2023-04-24T13:44:19;5.60;;;4.83;;
7833;SDS011;3962;42.696;23.354;2023-04-24T13:46:47;8.13;;;4.80;;
7833;SDS011;3962;42.696;23.354;2023-04-24T13:49:15;6.40;;;4.63;;
7833;SDS011;3962;42.696;23.354;2023-04-24T13:51:44;9.50;;;5.77;;
7833;SDS011;3962;42.696;23.354;2023-04-24T13:54:11;7.90;;;5.07;;
7833;SDS011;3962;42.696;23.354;2023-04-24T13:56:38;5.87;;;4.50;;
7833;SDS011;3962;42.696;23.354;2023-04-24T13:59:05;13.97;;;5.30;;
7833;SDS011;3962;42.696;23.354;2023-04-24T14:01:32;5.77;;;5.17;;
7833;SDS011;3962;42.696;23.354;2023-04-24T14:03:59;6.83;;;5.00;;
7833;SDS011;3962;42.696;23.354;2023-04-24T14:06:26;7.13;;;4.63;;
7833;SDS011;3962;42.696;23.354;2023-04-24T14:08:55;6.23;;;5.00;;
7833;SDS011;3962;42.696;23.354;2023-04-24T14:11:22;8.93;;;4.70;;
7833;SDS011;3962;42.696;23.354;2023-04-24T14:13:49;9.53;;;5.00;;
7833;SDS011;3962;42.696;23.354;2023-04-24T14:16:16;6.67;;;4.40;;
7833;SDS011;3962;42.696;23.354;2023-04-24T14:18:43;9.73;;;4.90;;
7833;SDS011;3962;42.696;23.354;2023-04-24T14:21:10;4.30;;;3.90;;
7833;SDS011;3962;42.696;23.354;2023-04-24T14:23:37;4.60;;;3.83;;
7833;SDS011;3962;42.696;23.354;2023-04-24T14:26:05;6.43;;;4.30;;
7833;SDS011;3962;42.696;23.354;2023-04-24T14:28:32;4.83;;;3.93;;
7833;SDS011;3962;42.696;23.354;2023-04-24T14:30:58;8.40;;;3.93;;
7833;SDS011;3962;42.696;23.354;2023-04-24T14:33:26;6.13;;;4.07;;
7833;SDS011;3962;42.696;23.354;2023-04-24T14:35:53;6.20;;;3.97;;
7833;SDS011;3962;42.696;23.354;2023-04-24T14:38:21;9.97;;;4.67;;
7833;SDS011;3962;42.696;23.354;2023-04-24T14:40:48;8.80;;;5.30;;
7833;SDS011;3962;42.696;23.354;2023-04-24T14:43:16;7.47;;;4.93;;
7833;SDS011;3962;42.696;23.354;2023-04-24T14:45:43;5.40;;;4.70;;
7833;SDS011;3962;42.696;23.354;2023-04-24T14:48:10;6.17;;;5.10;;
7833;SDS011;3962;42.696;23.354;2023-04-24T14:50:37;4.80;;;4.37;;
7833;SDS011;3962;42.696;23.354;2023-04-24T14:53:04;11.00;;;3.77;;
7833;SDS011;3962;42.696;23.354;2023-04-24T14:55:31;7.77;;;4.60;;
7833;SDS011;3962;42.696;23.354;2023-04-24T14:57:59;4.90;;;4.40;;
7833;SDS011;3962;42.696;23.354;2023-04-24T15:00:28;6.40;;;4.60;;